AUA57MP LOWW-LIRN
Flight info
| Callsign | AUA57MP |
|---|---|
| Flight time | 1h 25m |
| Altitude | 38000 |
| Route | STEIN DCT NOHAT DCT NEKIN DCT ELGUS DCT SUXUB DCT ERIKA |
| Aircraft | A20N/M-SDE2E3FGHIJ1RWXY/LB1 |
Departure
| Time | 2026-05-04 07:14 |
|---|---|
| Airport | Vienna International Airport (LOWW) |
Arrival
| Time | 2026-05-04 08:40 |
|---|---|
| Airport | Naples International Airport (LIRN) |
| Time | Latitude | Longitude | Altitude | Speed | Heading |
|---|---|---|---|---|---|
| 2026-05-04 06:44 | 48.11901 | 16.56769 | 608 ft | 0 kts | 205° |
| 2026-05-04 07:01 | 48.11978 | 16.56766 | 608 ft | 2 kts | 126° |
| 2026-05-04 07:01 | 48.11982 | 16.56756 | 608 ft | 1 kts | 115° |
| 2026-05-04 07:02 | 48.11985 | 16.56749 | 608 ft | 0 kts | 116° |
| 2026-05-04 07:02 | 48.11984 | 16.56749 | 608 ft | 0 kts | 116° |
| 2026-05-04 07:03 | 48.11982 | 16.56756 | 608 ft | 2 kts | 117° |
| 2026-05-04 07:03 | 48.11968 | 16.56796 | 608 ft | 6 kts | 119° |
| 2026-05-04 07:03 | 48.11948 | 16.56855 | 608 ft | 6 kts | 116° |
| 2026-05-04 07:04 | 48.11928 | 16.56915 | 608 ft | 6 kts | 116° |
| 2026-05-04 07:04 | 48.11904 | 16.56989 | 608 ft | 8 kts | 116° |
| 2026-05-04 07:04 | 48.11879 | 16.57064 | 608 ft | 8 kts | 116° |
| 2026-05-04 07:04 | 48.11857 | 16.57142 | 608 ft | 8 kts | 102° |
| 2026-05-04 07:05 | 48.11848 | 16.57223 | 608 ft | 8 kts | 109° |
| 2026-05-04 07:05 | 48.11826 | 16.57300 | 608 ft | 8 kts | 117° |
| 2026-05-04 07:05 | 48.11807 | 16.57378 | 608 ft | 7 kts | 91° |
| 2026-05-04 07:05 | 48.11834 | 16.57441 | 608 ft | 7 kts | 22° |
| 2026-05-04 07:06 | 48.11938 | 16.57415 | 608 ft | 7 kts | 345° |
| 2026-05-04 07:06 | 48.11992 | 16.57418 | 608 ft | 8 kts | 34° |
| 2026-05-04 07:06 | 48.12010 | 16.57484 | 608 ft | 5 kts | 93° |
| 2026-05-04 07:07 | 48.12005 | 16.57530 | 608 ft | 4 kts | 103° |
| 2026-05-04 07:08 | 48.11996 | 16.57586 | 608 ft | 1 kts | 105° |
| 2026-05-04 07:09 | 48.11994 | 16.57596 | 608 ft | 0 kts | 105° |
| 2026-05-04 07:09 | 48.11992 | 16.57605 | 608 ft | 1 kts | 107° |
| 2026-05-04 07:09 | 48.11990 | 16.57615 | 608 ft | 0 kts | 107° |
| 2026-05-04 07:09 | 48.11990 | 16.57618 | 608 ft | 0 kts | 107° |
| 2026-05-04 07:10 | 48.11989 | 16.57620 | 608 ft | 0 kts | 107° |
| 2026-05-04 07:12 | 48.11931 | 16.57819 | 608 ft | 6 kts | 142° |
| 2026-05-04 07:12 | 48.11895 | 16.57848 | 608 ft | 6 kts | 159° |
| 2026-05-04 07:12 | 48.11851 | 16.57868 | 608 ft | 6 kts | 165° |
| 2026-05-04 07:12 | 48.11843 | 16.57872 | 608 ft | 0 kts | 165° |
| 2026-05-04 07:14 | 48.10043 | 16.58638 | 1125 ft | 154 kts | 164° |
| 2026-05-04 07:14 | 48.09043 | 16.59061 | 1956 ft | 154 kts | 163° |
| 2026-05-04 07:15 | 48.08021 | 16.59503 | 2760 ft | 160 kts | 164° |
| 2026-05-04 07:15 | 48.06893 | 16.59988 | 3359 ft | 181 kts | 165° |
| 2026-05-04 07:15 | 48.05639 | 16.60525 | 4058 ft | 198 kts | 165° |
| 2026-05-04 07:15 | 48.04245 | 16.61124 | 4748 ft | 218 kts | 165° |
| 2026-05-04 07:16 | 48.02740 | 16.61766 | 5455 ft | 237 kts | 166° |
| 2026-05-04 07:16 | 48.01115 | 16.62456 | 6142 ft | 256 kts | 166° |
| 2026-05-04 07:16 | 47.99343 | 16.63126 | 6931 ft | 270 kts | 172° |
| 2026-05-04 07:16 | 47.97475 | 16.63387 | 7936 ft | 274 kts | 181° |
| 2026-05-04 07:17 | 47.95578 | 16.63320 | 8960 ft | 277 kts | 184° |
| 2026-05-04 07:17 | 47.93652 | 16.63183 | 9937 ft | 281 kts | 184° |
| 2026-05-04 07:17 | 47.91696 | 16.63039 | 10804 ft | 288 kts | 184° |
| 2026-05-04 07:17 | 47.89649 | 16.62895 | 11366 ft | 306 kts | 183° |
| 2026-05-04 07:18 | 47.87475 | 16.62751 | 12093 ft | 317 kts | 183° |
| 2026-05-04 07:18 | 47.85298 | 16.62612 | 12967 ft | 322 kts | 182° |
| 2026-05-04 07:18 | 47.83053 | 16.62471 | 13863 ft | 326 kts | 182° |
| 2026-05-04 07:18 | 47.80773 | 16.62331 | 14737 ft | 330 kts | 182° |
| 2026-05-04 07:19 | 47.78497 | 16.62192 | 15588 ft | 334 kts | 182° |
| 2026-05-04 07:19 | 47.76163 | 16.62048 | 16410 ft | 338 kts | 182° |
| 2026-05-04 07:19 | 47.73820 | 16.61905 | 17209 ft | 342 kts | 183° |
| 2026-05-04 07:19 | 47.71439 | 16.61759 | 17993 ft | 347 kts | 183° |
| 2026-05-04 07:20 | 47.69037 | 16.61611 | 18750 ft | 351 kts | 183° |
| 2026-05-04 07:20 | 47.66592 | 16.61459 | 19449 ft | 356 kts | 183° |
| 2026-05-04 07:20 | 47.64117 | 16.61306 | 20143 ft | 361 kts | 183° |
| 2026-05-04 07:20 | 47.61600 | 16.61149 | 20832 ft | 366 kts | 183° |
| 2026-05-04 07:22 | 47.43010 | 16.60032 | 25261 ft | 400 kts | 181° |
| 2026-05-04 07:22 | 47.40217 | 16.60095 | 25840 ft | 405 kts | 179° |
| 2026-05-04 07:23 | 47.37410 | 16.60219 | 26400 ft | 409 kts | 179° |
| 2026-05-04 07:23 | 47.34575 | 16.60346 | 26945 ft | 413 kts | 179° |
| 2026-05-04 07:23 | 47.31708 | 16.60473 | 27472 ft | 417 kts | 179° |
| 2026-05-04 07:23 | 47.28788 | 16.60601 | 27983 ft | 420 kts | 179° |
| 2026-05-04 07:24 | 47.25881 | 16.60727 | 28461 ft | 424 kts | 179° |
| 2026-05-04 07:24 | 47.22897 | 16.60857 | 28921 ft | 428 kts | 179° |
| 2026-05-04 07:24 | 47.19929 | 16.60986 | 29355 ft | 431 kts | 179° |
| 2026-05-04 07:24 | 47.16945 | 16.61115 | 29773 ft | 435 kts | 179° |
| 2026-05-04 07:25 | 47.13922 | 16.61246 | 30172 ft | 438 kts | 179° |
| 2026-05-04 07:26 | 46.92550 | 16.62167 | 33567 ft | 437 kts | 180° |
| 2026-05-04 07:27 | 46.89511 | 16.62296 | 34032 ft | 436 kts | 180° |
| 2026-05-04 07:27 | 46.86481 | 16.62424 | 34474 ft | 436 kts | 180° |
| 2026-05-04 07:27 | 46.83438 | 16.62556 | 34875 ft | 435 kts | 180° |
| 2026-05-04 07:27 | 46.80441 | 16.62826 | 35240 ft | 435 kts | 176° |
| 2026-05-04 07:28 | 46.77450 | 16.63342 | 35603 ft | 435 kts | 174° |
| 2026-05-04 07:28 | 46.74459 | 16.63919 | 35961 ft | 434 kts | 174° |
| 2026-05-04 07:28 | 46.71501 | 16.64490 | 36301 ft | 433 kts | 174° |
| 2026-05-04 07:28 | 46.68496 | 16.65067 | 36601 ft | 433 kts | 174° |
| 2026-05-04 07:29 | 46.65538 | 16.65633 | 36902 ft | 434 kts | 174° |
| 2026-05-04 07:29 | 46.62530 | 16.66206 | 37196 ft | 435 kts | 174° |
| 2026-05-04 07:29 | 46.59532 | 16.66777 | 37485 ft | 437 kts | 174° |
| 2026-05-04 07:29 | 46.56531 | 16.67347 | 37762 ft | 438 kts | 174° |
| 2026-05-04 07:30 | 46.53516 | 16.67919 | 38015 ft | 440 kts | 174° |
| 2026-05-04 07:30 | 46.50471 | 16.68497 | 38060 ft | 442 kts | 174° |
| 2026-05-04 07:30 | 46.44347 | 16.69060 | 38066 ft | 440 kts | 184° |
| 2026-05-04 07:31 | 46.38327 | 16.67959 | 38066 ft | 438 kts | 195° |
| 2026-05-04 07:33 | 46.18794 | 16.56375 | 38067 ft | 435 kts | 206° |
| 2026-05-04 07:33 | 46.16047 | 16.54624 | 38067 ft | 435 kts | 206° |
| 2026-05-04 07:33 | 46.10520 | 16.51111 | 38066 ft | 435 kts | 206° |
| 2026-05-04 07:34 | 46.05000 | 16.47615 | 38067 ft | 434 kts | 206° |
| 2026-05-04 07:34 | 45.99469 | 16.44119 | 38070 ft | 434 kts | 206° |
| 2026-05-04 07:35 | 45.93980 | 16.40659 | 38071 ft | 434 kts | 206° |
| 2026-05-04 07:35 | 45.88458 | 16.37183 | 38073 ft | 434 kts | 206° |
| 2026-05-04 07:36 | 45.82937 | 16.33716 | 38078 ft | 435 kts | 206° |
| 2026-05-04 07:38 | 45.60822 | 16.19912 | 38078 ft | 434 kts | 206° |
| 2026-05-04 07:38 | 45.55295 | 16.16480 | 38078 ft | 434 kts | 206° |
| 2026-05-04 07:39 | 45.49740 | 16.13037 | 38078 ft | 435 kts | 206° |
| 2026-05-04 07:39 | 45.44207 | 16.09615 | 38075 ft | 434 kts | 206° |
| 2026-05-04 07:40 | 45.38678 | 16.06202 | 38075 ft | 434 kts | 206° |
| 2026-05-04 07:40 | 45.33182 | 16.02819 | 38072 ft | 434 kts | 206° |
| 2026-05-04 07:41 | 45.27668 | 15.99433 | 38077 ft | 433 kts | 206° |
| 2026-05-04 07:41 | 45.22120 | 15.96030 | 38080 ft | 433 kts | 206° |
| 2026-05-04 07:42 | 45.16625 | 15.92669 | 38075 ft | 434 kts | 206° |
| 2026-05-04 07:42 | 45.11069 | 15.89276 | 38076 ft | 434 kts | 206° |
| 2026-05-04 07:43 | 45.05571 | 15.85927 | 38080 ft | 433 kts | 206° |
| 2026-05-04 07:43 | 45.00039 | 15.82564 | 38091 ft | 432 kts | 207° |
| 2026-05-04 07:44 | 44.94541 | 15.79227 | 38088 ft | 432 kts | 207° |
| 2026-05-04 07:44 | 44.89036 | 15.75895 | 38090 ft | 432 kts | 207° |
| 2026-05-04 07:45 | 44.83522 | 15.72566 | 38100 ft | 433 kts | 207° |
| 2026-05-04 07:45 | 44.77977 | 15.69220 | 38111 ft | 432 kts | 207° |
| 2026-05-04 07:46 | 44.72485 | 15.65916 | 38114 ft | 432 kts | 207° |
| 2026-05-04 07:46 | 44.66985 | 15.62615 | 38114 ft | 431 kts | 207° |
| 2026-05-04 07:47 | 44.61471 | 15.59314 | 38112 ft | 431 kts | 207° |
| 2026-05-04 07:49 | 44.39449 | 15.46185 | 38103 ft | 430 kts | 207° |
| 2026-05-04 07:49 | 44.33950 | 15.42925 | 38103 ft | 430 kts | 207° |
| 2026-05-04 07:50 | 44.28465 | 15.39681 | 38103 ft | 431 kts | 207° |
| 2026-05-04 07:50 | 44.22956 | 15.36427 | 38102 ft | 430 kts | 207° |
| 2026-05-04 07:51 | 44.17445 | 15.33178 | 38103 ft | 430 kts | 206° |
| 2026-05-04 07:51 | 44.11928 | 15.29932 | 38107 ft | 430 kts | 206° |
| 2026-05-04 07:52 | 44.06456 | 15.26720 | 38106 ft | 430 kts | 206° |
| 2026-05-04 07:52 | 44.00942 | 15.23489 | 38115 ft | 429 kts | 206° |
| 2026-05-04 07:54 | 43.78989 | 15.10693 | 38090 ft | 428 kts | 206° |
| 2026-05-04 07:55 | 43.73514 | 15.07516 | 38085 ft | 428 kts | 206° |
| 2026-05-04 07:55 | 43.68024 | 15.04338 | 38089 ft | 428 kts | 206° |
| 2026-05-04 07:56 | 43.62549 | 15.01171 | 38082 ft | 427 kts | 206° |
| 2026-05-04 07:56 | 43.57090 | 14.98023 | 38082 ft | 427 kts | 206° |
| 2026-05-04 07:57 | 43.51579 | 14.94912 | 38085 ft | 428 kts | 205° |
| 2026-05-04 07:57 | 43.46069 | 14.91917 | 38087 ft | 428 kts | 205° |
| 2026-05-04 07:58 | 43.40554 | 14.88922 | 38084 ft | 427 kts | 205° |
| 2026-05-04 07:58 | 43.35015 | 14.85910 | 38081 ft | 427 kts | 205° |
| 2026-05-04 07:59 | 43.29507 | 14.82916 | 38082 ft | 427 kts | 205° |
| 2026-05-04 07:59 | 43.24013 | 14.79936 | 38082 ft | 427 kts | 205° |
| 2026-05-04 08:00 | 43.18507 | 14.76955 | 38084 ft | 427 kts | 205° |
| 2026-05-04 08:02 | 42.96487 | 14.65088 | 38082 ft | 426 kts | 205° |
| 2026-05-04 08:02 | 42.90974 | 14.62130 | 38083 ft | 425 kts | 205° |
| 2026-05-04 08:03 | 42.85463 | 14.59179 | 38084 ft | 426 kts | 205° |
| 2026-05-04 08:03 | 42.79957 | 14.56237 | 38083 ft | 425 kts | 205° |
| 2026-05-04 08:04 | 42.74501 | 14.53328 | 38082 ft | 425 kts | 205° |
| 2026-05-04 08:04 | 42.68975 | 14.50386 | 38085 ft | 425 kts | 205° |
| 2026-05-04 08:05 | 42.63508 | 14.47481 | 38082 ft | 425 kts | 205° |
| 2026-05-04 08:05 | 42.57998 | 14.44560 | 38084 ft | 425 kts | 205° |
| 2026-05-04 08:06 | 42.52482 | 14.41640 | 38087 ft | 425 kts | 205° |
| 2026-05-04 08:06 | 42.49713 | 14.40177 | 37862 ft | 426 kts | 205° |
| 2026-05-04 08:06 | 42.46975 | 14.38732 | 37522 ft | 423 kts | 205° |
| 2026-05-04 08:08 | 42.27969 | 14.28732 | 34395 ft | 420 kts | 204° |
| 2026-05-04 08:08 | 42.25249 | 14.27307 | 33703 ft | 421 kts | 204° |
| 2026-05-04 08:10 | 42.03524 | 14.15966 | 28894 ft | 410 kts | 204° |
| 2026-05-04 08:11 | 42.00872 | 14.14584 | 28426 ft | 407 kts | 204° |
| 2026-05-04 08:11 | 41.95666 | 14.11880 | 27493 ft | 401 kts | 204° |
| 2026-05-04 08:11 | 41.93058 | 14.10527 | 27011 ft | 397 kts | 204° |
| 2026-05-04 08:12 | 41.90491 | 14.09234 | 26533 ft | 395 kts | 201° |
| 2026-05-04 08:12 | 41.87858 | 14.08183 | 26051 ft | 394 kts | 197° |
| 2026-05-04 08:12 | 41.85208 | 14.07434 | 25562 ft | 393 kts | 192° |
| 2026-05-04 08:12 | 41.82502 | 14.06898 | 25077 ft | 391 kts | 190° |
| 2026-05-04 08:13 | 41.79818 | 14.06400 | 24594 ft | 389 kts | 190° |
| 2026-05-04 08:13 | 41.77146 | 14.05906 | 24117 ft | 387 kts | 190° |
| 2026-05-04 08:13 | 41.74486 | 14.05412 | 23641 ft | 385 kts | 190° |
| 2026-05-04 08:13 | 41.71824 | 14.04914 | 23170 ft | 383 kts | 190° |
| 2026-05-04 08:14 | 41.69202 | 14.04422 | 22713 ft | 381 kts | 190° |
| 2026-05-04 08:14 | 41.66589 | 14.03932 | 22255 ft | 379 kts | 189° |
| 2026-05-04 08:14 | 41.63959 | 14.03729 | 21763 ft | 380 kts | 174° |
| 2026-05-04 08:16 | 41.50808 | 14.19759 | 18566 ft | 364 kts | 133° |
| 2026-05-04 08:16 | 41.49107 | 14.22226 | 18125 ft | 361 kts | 132° |
| 2026-05-04 08:16 | 41.47406 | 14.24686 | 17665 ft | 357 kts | 132° |
| 2026-05-04 08:17 | 41.45748 | 14.27084 | 17211 ft | 354 kts | 132° |
| 2026-05-04 08:17 | 41.44084 | 14.29486 | 16770 ft | 351 kts | 132° |
| 2026-05-04 08:17 | 41.42410 | 14.31831 | 16490 ft | 343 kts | 135° |
| 2026-05-04 08:17 | 41.40696 | 14.33931 | 16346 ft | 335 kts | 138° |
| 2026-05-04 08:19 | 41.28513 | 14.46399 | 14899 ft | 295 kts | 147° |
| 2026-05-04 08:19 | 41.26776 | 14.47813 | 14581 ft | 291 kts | 150° |
| 2026-05-04 08:20 | 41.24870 | 14.48591 | 14208 ft | 290 kts | 179° |
| 2026-05-04 08:20 | 41.22972 | 14.47932 | 13882 ft | 286 kts | 213° |
| 2026-05-04 08:20 | 41.21624 | 14.46034 | 13588 ft | 281 kts | 240° |
| 2026-05-04 08:20 | 41.20717 | 14.43783 | 13318 ft | 276 kts | 242° |
| 2026-05-04 08:21 | 41.19819 | 14.41551 | 13061 ft | 272 kts | 240° |
| 2026-05-04 08:21 | 41.18888 | 14.39418 | 12802 ft | 267 kts | 235° |
| 2026-05-04 08:21 | 41.17576 | 14.37762 | 12483 ft | 263 kts | 204° |
| 2026-05-04 08:21 | 41.15783 | 14.37380 | 12139 ft | 261 kts | 171° |
| 2026-05-04 08:22 | 41.14124 | 14.38230 | 11798 ft | 260 kts | 147° |
| 2026-05-04 08:22 | 41.12602 | 14.39551 | 11457 ft | 260 kts | 147° |
| 2026-05-04 08:24 | 41.11342 | 14.52435 | 10156 ft | 256 kts | 55° |
| 2026-05-04 08:24 | 41.12297 | 14.54412 | 10162 ft | 255 kts | 56° |
| 2026-05-04 08:24 | 41.13253 | 14.56410 | 10163 ft | 255 kts | 56° |
| 2026-05-04 08:24 | 41.14204 | 14.58410 | 10163 ft | 256 kts | 56° |
| 2026-05-04 08:25 | 41.15137 | 14.60391 | 10157 ft | 256 kts | 57° |
| 2026-05-04 08:25 | 41.16073 | 14.62406 | 10160 ft | 256 kts | 57° |
| 2026-05-04 08:25 | 41.17004 | 14.64418 | 10156 ft | 255 kts | 57° |
| 2026-05-04 08:25 | 41.17926 | 14.66414 | 10154 ft | 255 kts | 57° |
| 2026-05-04 08:26 | 41.18852 | 14.68415 | 10152 ft | 254 kts | 57° |
| 2026-05-04 08:27 | 41.15449 | 14.79474 | 9169 ft | 224 kts | 151° |
| 2026-05-04 08:28 | 41.13971 | 14.80090 | 8853 ft | 224 kts | 182° |
| 2026-05-04 08:28 | 41.12514 | 14.79579 | 8586 ft | 219 kts | 214° |
| 2026-05-04 08:28 | 41.11462 | 14.78178 | 8338 ft | 213 kts | 240° |
| 2026-05-04 08:28 | 41.10713 | 14.76511 | 8105 ft | 210 kts | 242° |
| 2026-05-04 08:29 | 41.09999 | 14.74833 | 7856 ft | 208 kts | 243° |
| 2026-05-04 08:29 | 41.09312 | 14.73169 | 7611 ft | 206 kts | 243° |
| 2026-05-04 08:29 | 41.08611 | 14.71513 | 7372 ft | 205 kts | 242° |
| 2026-05-04 08:31 | 41.03509 | 14.60510 | 6020 ft | 194 kts | 239° |
| 2026-05-04 08:33 | 40.99089 | 14.51266 | 4150 ft | 134 kts | 239° |
| 2026-05-04 08:33 | 40.98592 | 14.50219 | 3969 ft | 134 kts | 239° |
| 2026-05-04 08:35 | 40.95187 | 14.43019 | 2655 ft | 130 kts | 239° |
| 2026-05-04 08:35 | 40.94704 | 14.42004 | 2467 ft | 129 kts | 239° |
| 2026-05-04 08:35 | 40.94227 | 14.40990 | 2278 ft | 129 kts | 240° |
| 2026-05-04 08:35 | 40.93755 | 14.39986 | 2094 ft | 129 kts | 239° |
| 2026-05-04 08:37 | 40.90928 | 14.33992 | 967 ft | 127 kts | 238° |
| 2026-05-04 08:37 | 40.90457 | 14.33005 | 783 ft | 126 kts | 236° |
| 2026-05-04 08:37 | 40.89991 | 14.32029 | 597 ft | 126 kts | 238° |
| 2026-05-04 08:38 | 40.89538 | 14.31043 | 420 ft | 125 kts | 238° |
| 2026-05-04 08:38 | 40.89078 | 14.30074 | 257 ft | 124 kts | 236° |
| 2026-05-04 08:38 | 40.88653 | 14.29185 | 257 ft | 92 kts | 236° |
| 2026-05-04 08:40 | 40.88198 | 14.28400 | 285 ft | 0 kts | 208° |
| 2026-05-04 08:40 | 40.88197 | 14.28399 | 285 ft | 0 kts | 208° |
| 2026-05-04 08:40 | 40.88186 | 14.28392 | 285 ft | 3 kts | 207° |
| 2026-05-04 08:41 | 40.88160 | 14.28374 | 286 ft | 4 kts | 207° |
| 2026-05-04 08:41 | 40.88126 | 14.28350 | 288 ft | 6 kts | 208° |
| 2026-05-04 08:41 | 40.88082 | 14.28326 | 289 ft | 7 kts | 171° |
| 2026-05-04 08:41 | 40.88056 | 14.28388 | 290 ft | 9 kts | 99° |
| 2026-05-04 08:42 | 40.88047 | 14.28483 | 291 ft | 8 kts | 101° |
| 2026-05-04 08:42 | 40.88003 | 14.28520 | 292 ft | 8 kts | 196° |
| 2026-05-04 08:42 | 40.87960 | 14.28484 | 294 ft | 6 kts | 219° |
| 2026-05-04 08:42 | 40.87940 | 14.28432 | 295 ft | 6 kts | 265° |
| 2026-05-04 08:43 | 40.87943 | 14.28370 | 294 ft | 7 kts | 277° |
| 2026-05-04 08:43 | 40.87950 | 14.28298 | 293 ft | 8 kts | 277° |
| 2026-05-04 08:43 | 40.87957 | 14.28221 | 291 ft | 5 kts | 277° |
| 2026-05-04 08:43 | 40.87964 | 14.28161 | 291 ft | 7 kts | 275° |
| 2026-05-04 08:44 | 40.87949 | 14.28103 | 291 ft | 6 kts | 234° |
| 2026-05-04 08:44 | 40.87923 | 14.28059 | 292 ft | 4 kts | 231° |
| 2026-05-04 08:46 | 40.87875 | 14.27990 | 294 ft | 0 kts | 192° |
| 2026-05-04 08:46 | 40.87868 | 14.27991 | 294 ft | 1 kts | 169° |
| 2026-05-04 08:46 | 40.87857 | 14.27997 | 295 ft | 0 kts | 150° |
| 2026-05-04 08:46 | 40.87855 | 14.27999 | 295 ft | 0 kts | 150° |
| 2026-05-04 08:47 | 40.87845 | 14.28008 | 295 ft | 2 kts | 142° |
| 2026-05-04 08:47 | 40.87838 | 14.28016 | 295 ft | 0 kts | 141° |
| 2026-05-04 08:47 | 40.87835 | 14.28019 | 296 ft | 0 kts | 141° |
| 2026-05-04 08:48 | 40.87834 | 14.28020 | 296 ft | 0 kts | 141° |
| 2026-05-04 08:48 | 40.87830 | 14.28024 | 296 ft | 0 kts | 141° |
| 2026-05-04 08:48 | 40.87824 | 14.28031 | 296 ft | 2 kts | 140° |
| 2026-05-04 08:48 | 40.87817 | 14.28038 | 296 ft | 0 kts | 141° |
| 2026-05-04 08:49 | 40.87814 | 14.28042 | 296 ft | 0 kts | 142° |